sensor_id;sensor_type;location;lat;lon;timestamp;pressure;altitude;pressure_sealevel;temperature;humidity
27425;BME280;15244;49.088;11.886;2023-09-30T00:03:45;96474.34;;;21.63;44.77
27425;BME280;15244;49.088;11.886;2023-09-30T00:08:46;96487.28;;;21.54;45.18
27425;BME280;15244;49.088;11.886;2023-09-30T00:13:48;96496.50;;;21.51;45.29
27425;BME280;15244;49.088;11.886;2023-09-30T00:18:50;96494.59;;;21.48;45.36
27425;BME280;15244;49.088;11.886;2023-09-30T00:23:52;96491.56;;;21.42;45.26
27425;BME280;15244;49.088;11.886;2023-09-30T00:28:54;96509.16;;;21.35;45.74
27425;BME280;15244;49.088;11.886;2023-09-30T00:33:56;96509.34;;;21.28;45.98
27425;BME280;15244;49.088;11.886;2023-09-30T00:38:59;96500.00;;;21.22;46.15
27425;BME280;15244;49.088;11.886;2023-09-30T00:44:00;96514.03;;;21.15;46.39
27425;BME280;15244;49.088;11.886;2023-09-30T00:49:03;96497.16;;;21.09;46.28
27425;BME280;15244;49.088;11.886;2023-09-30T00:54:05;96489.41;;;21.00;47.00
27425;BME280;15244;49.088;11.886;2023-09-30T00:59:07;96497.84;;;20.97;46.99
27425;BME280;15244;49.088;11.886;2023-09-30T01:04:10;96503.44;;;20.93;47.17
27425;BME280;15244;49.088;11.886;2023-09-30T01:09:12;96509.88;;;20.90;47.29
27425;BME280;15244;49.088;11.886;2023-09-30T01:14:28;96514.28;;;20.88;47.53
27425;BME280;15244;49.088;11.886;2023-09-30T01:19:29;96513.56;;;20.84;47.63
27425;BME280;15244;49.088;11.886;2023-09-30T01:24:38;96500.25;;;20.78;47.53
27425;BME280;15244;49.088;11.886;2023-09-30T01:29:41;96501.56;;;20.74;47.81
27425;BME280;15244;49.088;11.886;2023-09-30T01:34:43;96508.38;;;20.69;47.87
27425;BME280;15244;49.088;11.886;2023-09-30T01:39:45;96507.25;;;20.67;48.11
27425;BME280;15244;49.088;11.886;2023-09-30T01:44:47;96512.44;;;20.65;48.37
27425;BME280;15244;49.088;11.886;2023-09-30T01:49:49;96504.22;;;20.61;48.32
27425;BME280;15244;49.088;11.886;2023-09-30T01:54:51;96501.09;;;20.59;48.31
27425;BME280;15244;49.088;11.886;2023-09-30T01:59:53;96504.75;;;20.56;48.60
27425;BME280;15244;49.088;11.886;2023-09-30T02:04:55;96515.00;;;20.55;48.52
27425;BME280;15244;49.088;11.886;2023-09-30T02:09:57;96503.16;;;20.55;48.52
27425;BME280;15244;49.088;11.886;2023-09-30T02:14:59;96506.34;;;20.53;48.78
27425;BME280;15244;49.088;11.886;2023-09-30T02:20:01;96503.22;;;20.51;48.98
27425;BME280;15244;49.088;11.886;2023-09-30T02:25:07;96506.50;;;20.46;49.04
27425;BME280;15244;49.088;11.886;2023-09-30T02:30:10;96514.09;;;20.42;49.03
27425;BME280;15244;49.088;11.886;2023-09-30T02:35:13;96520.88;;;20.41;49.20
27425;BME280;15244;49.088;11.886;2023-09-30T02:40:16;96515.31;;;20.41;49.45
27425;BME280;15244;49.088;11.886;2023-09-30T02:45:18;96524.41;;;20.42;49.36
27425;BME280;15244;49.088;11.886;2023-09-30T02:50:20;96523.28;;;20.39;49.50
27425;BME280;15244;49.088;11.886;2023-09-30T02:55:22;96528.81;;;20.39;49.30
27425;BME280;15244;49.088;11.886;2023-09-30T03:00:24;96527.75;;;20.33;49.36
27425;BME280;15244;49.088;11.886;2023-09-30T03:05:27;96527.47;;;20.27;49.54
27425;BME280;15244;49.088;11.886;2023-09-30T03:10:31;96523.66;;;20.21;50.02
27425;BME280;15244;49.088;11.886;2023-09-30T03:15:33;96518.53;;;20.20;49.93
27425;BME280;15244;49.088;11.886;2023-09-30T03:20:35;96524.94;;;20.17;50.27
27425;BME280;15244;49.088;11.886;2023-09-30T03:25:37;96534.47;;;20.16;50.05
27425;BME280;15244;49.088;11.886;2023-09-30T03:30:40;96538.41;;;20.14;50.19
27425;BME280;15244;49.088;11.886;2023-09-30T03:35:41;96533.75;;;20.11;50.32
27425;BME280;15244;49.088;11.886;2023-09-30T03:40:43;96530.69;;;20.06;50.35
27425;BME280;15244;49.088;11.886;2023-09-30T03:45:51;96531.56;;;20.03;50.31
27425;BME280;15244;49.088;11.886;2023-09-30T03:50:52;96529.97;;;20.02;50.82
27425;BME280;15244;49.088;11.886;2023-09-30T03:55:55;96536.72;;;20.01;50.78
27425;BME280;15244;49.088;11.886;2023-09-30T04:00:56;96532.75;;;20.02;50.51
27425;BME280;15244;49.088;11.886;2023-09-30T04:05:58;96530.75;;;20.02;50.80
27425;BME280;15244;49.088;11.886;2023-09-30T04:11:00;96533.59;;;19.99;50.83
27425;BME280;15244;49.088;11.886;2023-09-30T04:16:02;96548.00;;;19.90;50.68
27425;BME280;15244;49.088;11.886;2023-09-30T04:21:04;96545.31;;;19.86;50.90
27425;BME280;15244;49.088;11.886;2023-09-30T04:26:06;96556.78;;;19.85;51.10
27425;BME280;15244;49.088;11.886;2023-09-30T04:31:11;96560.00;;;19.83;51.25
27425;BME280;15244;49.088;11.886;2023-09-30T04:36:15;96569.47;;;19.82;51.45
27425;BME280;15244;49.088;11.886;2023-09-30T04:41:17;96575.38;;;19.84;51.31
27425;BME280;15244;49.088;11.886;2023-09-30T04:46:20;96578.50;;;19.86;51.46
27425;BME280;15244;49.088;11.886;2023-09-30T04:51:24;96582.03;;;19.87;51.41
27425;BME280;15244;49.088;11.886;2023-09-30T04:56:27;96584.81;;;19.87;51.37
27425;BME280;15244;49.088;11.886;2023-09-30T05:01:29;96580.91;;;19.84;51.54
27425;BME280;15244;49.088;11.886;2023-09-30T05:06:31;96580.53;;;19.82;51.59
27425;BME280;15244;49.088;11.886;2023-09-30T05:11:34;96586.53;;;19.81;51.60
27425;BME280;15244;49.088;11.886;2023-09-30T05:16:36;96584.59;;;19.78;51.87
27425;BME280;15244;49.088;11.886;2023-09-30T05:21:38;96588.19;;;19.75;51.96
27425;BME280;15244;49.088;11.886;2023-09-30T05:26:40;96589.00;;;19.75;51.69
27425;BME280;15244;49.088;11.886;2023-09-30T05:31:41;96585.44;;;19.75;51.87
27425;BME280;15244;49.088;11.886;2023-09-30T05:36:43;96588.63;;;19.73;51.89
27425;BME280;15244;49.088;11.886;2023-09-30T05:41:46;96598.50;;;19.74;51.96
27425;BME280;15244;49.088;11.886;2023-09-30T05:46:48;96594.16;;;19.73;52.09
27425;BME280;15244;49.088;11.886;2023-09-30T05:51:49;96601.25;;;19.74;52.04
27425;BME280;15244;49.088;11.886;2023-09-30T05:56:52;96599.72;;;19.73;52.05
27425;BME280;15244;49.088;11.886;2023-09-30T06:01:53;96594.59;;;19.72;51.93
27425;BME280;15244;49.088;11.886;2023-09-30T06:06:55;96613.25;;;19.67;51.94
27425;BME280;15244;49.088;11.886;2023-09-30T06:11:57;96637.75;;;19.65;52.33
27425;BME280;15244;49.088;11.886;2023-09-30T06:16:58;96630.28;;;19.62;52.03
27425;BME280;15244;49.088;11.886;2023-09-30T06:22:00;96628.72;;;19.61;52.35
27425;BME280;15244;49.088;11.886;2023-09-30T06:27:04;96627.56;;;19.59;52.33
27425;BME280;15244;49.088;11.886;2023-09-30T06:32:07;96632.41;;;19.55;52.46
27425;BME280;15244;49.088;11.886;2023-09-30T06:37:09;96638.72;;;19.55;52.84
27425;BME280;15244;49.088;11.886;2023-09-30T06:42:10;96635.50;;;19.57;52.88
27425;BME280;15244;49.088;11.886;2023-09-30T06:47:12;96641.03;;;19.57;52.91
27425;BME280;15244;49.088;11.886;2023-09-30T06:52:13;96641.88;;;19.54;53.09
27425;BME280;15244;49.088;11.886;2023-09-30T06:57:15;96653.13;;;19.43;53.19
27425;BME280;15244;49.088;11.886;2023-09-30T07:02:17;96675.03;;;19.30;53.73
27425;BME280;15244;49.088;11.886;2023-09-30T07:07:18;96680.84;;;19.12;53.88
27425;BME280;15244;49.088;11.886;2023-09-30T07:12:20;96693.22;;;19.00;54.11
27425;BME280;15244;49.088;11.886;2023-09-30T07:17:22;96683.56;;;18.85;54.12
27425;BME280;15244;49.088;11.886;2023-09-30T07:22:23;96711.31;;;18.71;54.61
27425;BME280;15244;49.088;11.886;2023-09-30T07:27:44;96713.03;;;18.61;54.66
27425;BME280;15244;49.088;11.886;2023-09-30T07:32:46;96706.38;;;18.55;54.76
27425;BME280;15244;49.088;11.886;2023-09-30T07:37:48;96719.38;;;18.58;54.48
27425;BME280;15244;49.088;11.886;2023-09-30T07:42:54;96719.78;;;18.56;54.93
27425;BME280;15244;49.088;11.886;2023-09-30T07:47:56;96711.88;;;18.58;54.76
27425;BME280;15244;49.088;11.886;2023-09-30T07:53:00;96723.72;;;18.59;54.83
27425;BME280;15244;49.088;11.886;2023-09-30T07:58:02;96727.66;;;18.58;54.72
27425;BME280;15244;49.088;11.886;2023-09-30T08:03:04;96727.66;;;18.58;54.92
27425;BME280;15244;49.088;11.886;2023-09-30T08:08:07;96737.47;;;18.62;54.91
27425;BME280;15244;49.088;11.886;2023-09-30T08:13:09;96742.13;;;18.69;54.73
27425;BME280;15244;49.088;11.886;2023-09-30T08:18:11;96741.75;;;18.67;54.98
27425;BME280;15244;49.088;11.886;2023-09-30T08:23:12;96747.69;;;18.66;55.14
27425;BME280;15244;49.088;11.886;2023-09-30T08:28:14;96743.38;;;18.65;54.96
27425;BME280;15244;49.088;11.886;2023-09-30T08:33:16;96734.69;;;18.66;55.22
27425;BME280;15244;49.088;11.886;2023-09-30T08:38:17;96744.44;;;18.74;55.12
27425;BME280;15244;49.088;11.886;2023-09-30T08:43:21;96744.81;;;18.80;55.02
27425;BME280;15244;49.088;11.886;2023-09-30T08:48:28;96760.75;;;18.99;54.91
27425;BME280;15244;49.088;11.886;2023-09-30T08:53:31;96767.63;;;19.18;54.71
27425;BME280;15244;49.088;11.886;2023-09-30T08:58:33;96782.03;;;19.33;54.25
27425;BME280;15244;49.088;11.886;2023-09-30T09:03:35;96759.06;;;19.36;53.97
27425;BME280;15244;49.088;11.886;2023-09-30T09:08:37;96770.44;;;19.42;53.75
27425;BME280;15244;49.088;11.886;2023-09-30T09:13:50;96771.25;;;19.42;53.34
27425;BME280;15244;49.088;11.886;2023-09-30T09:18:58;96770.13;;;19.36;53.33
27425;BME280;15244;49.088;11.886;2023-09-30T09:24:00;96761.06;;;19.36;53.26
27425;BME280;15244;49.088;11.886;2023-09-30T09:29:04;96759.72;;;19.47;53.25
27425;BME280;15244;49.088;11.886;2023-09-30T09:34:14;96761.56;;;19.58;53.07
27425;BME280;15244;49.088;11.886;2023-09-30T09:39:28;96761.94;;;19.60;52.79
27425;BME280;15244;49.088;11.886;2023-09-30T09:44:33;96762.63;;;19.67;52.56
27425;BME280;15244;49.088;11.886;2023-09-30T09:49:35;96760.56;;;19.72;52.32
27425;BME280;15244;49.088;11.886;2023-09-30T09:54:37;96753.78;;;19.76;52.05
27425;BME280;15244;49.088;11.886;2023-09-30T09:59:42;96760.09;;;19.77;52.09
27425;BME280;15244;49.088;11.886;2023-09-30T10:04:45;96750.06;;;19.86;52.16
27425;BME280;15244;49.088;11.886;2023-09-30T10:09:49;96762.09;;;20.00;51.92
27425;BME280;15244;49.088;11.886;2023-09-30T10:14:52;96762.00;;;20.07;51.50
27425;BME280;15244;49.088;11.886;2023-09-30T10:20:11;96759.88;;;20.14;51.44
27425;BME280;15244;49.088;11.886;2023-09-30T10:25:33;96758.16;;;20.24;51.19
27425;BME280;15244;49.088;11.886;2023-09-30T10:30:35;96752.41;;;20.35;51.02
27425;BME280;15244;49.088;11.886;2023-09-30T10:40:39;96759.59;;;20.56;50.58
27425;BME280;15244;49.088;11.886;2023-09-30T10:50:49;96764.16;;;20.66;49.97
27425;BME280;15244;49.088;11.886;2023-09-30T10:55:57;96771.16;;;20.71;49.59
27425;BME280;15244;49.088;11.886;2023-09-30T11:01:00;96776.78;;;20.67;49.11
27425;BME280;15244;49.088;11.886;2023-09-30T11:06:02;96785.09;;;20.67;49.03
27425;BME280;15244;49.088;11.886;2023-09-30T11:11:13;96782.81;;;20.62;49.21
27425;BME280;15244;49.088;11.886;2023-09-30T11:16:16;96782.81;;;20.62;49.22
27425;BME280;15244;49.088;11.886;2023-09-30T11:21:17;96774.16;;;20.60;48.84
27425;BME280;15244;49.088;11.886;2023-09-30T11:26:29;96765.28;;;20.69;49.18
27425;BME280;15244;49.088;11.886;2023-09-30T11:31:37;96766.72;;;20.77;49.24
27425;BME280;15244;49.088;11.886;2023-09-30T11:36:41;96763.09;;;20.80;48.81
27425;BME280;15244;49.088;11.886;2023-09-30T11:41:48;96755.19;;;20.78;48.56
27425;BME280;15244;49.088;11.886;2023-09-30T11:46:50;96749.31;;;20.76;48.64
27425;BME280;15244;49.088;11.886;2023-09-30T11:51:56;96767.84;;;20.80;48.34
27425;BME280;15244;49.088;11.886;2023-09-30T11:57:01;96755.25;;;20.75;48.41
27425;BME280;15244;49.088;11.886;2023-09-30T12:02:03;96749.38;;;20.73;47.85
27425;BME280;15244;49.088;11.886;2023-09-30T12:07:15;96746.22;;;20.71;47.50
27425;BME280;15244;49.088;11.886;2023-09-30T12:12:17;96751.28;;;20.76;47.28
27425;BME280;15244;49.088;11.886;2023-09-30T12:17:19;96753.72;;;20.74;46.83
27425;BME280;15244;49.088;11.886;2023-09-30T12:22:22;96751.44;;;20.69;46.86
27425;BME280;15244;49.088;11.886;2023-09-30T12:27:24;96751.34;;;20.72;46.82
27425;BME280;15244;49.088;11.886;2023-09-30T12:32:26;96748.44;;;20.80;47.06
27425;BME280;15244;49.088;11.886;2023-09-30T12:37:30;96738.00;;;20.87;47.34
27425;BME280;15244;49.088;11.886;2023-09-30T12:42:33;96745.69;;;20.99;47.60
27425;BME280;15244;49.088;11.886;2023-09-30T12:47:38;96738.78;;;21.08;47.71
27425;BME280;15244;49.088;11.886;2023-09-30T12:52:40;96731.59;;;21.10;46.82
27425;BME280;15244;49.088;11.886;2023-09-30T12:57:42;96730.66;;;21.17;46.96
27425;BME280;15244;49.088;11.886;2023-09-30T13:02:43;96725.03;;;21.20;46.43
27425;BME280;15244;49.088;11.886;2023-09-30T13:07:45;96711.44;;;21.26;46.64
27425;BME280;15244;49.088;11.886;2023-09-30T13:12:48;96730.44;;;21.28;46.24
27425;BME280;15244;49.088;11.886;2023-09-30T13:17:51;96729.56;;;21.31;46.31
27425;BME280;15244;49.088;11.886;2023-09-30T13:22:52;96734.59;;;21.36;46.20
27425;BME280;15244;49.088;11.886;2023-09-30T13:27:54;96734.06;;;21.45;46.12
27425;BME280;15244;49.088;11.886;2023-09-30T13:32:55;96723.44;;;21.39;45.74
27425;BME280;15244;49.088;11.886;2023-09-30T13:37:57;96722.25;;;21.40;45.70
27425;BME280;15244;49.088;11.886;2023-09-30T13:42:59;96712.69;;;21.41;45.67
27425;BME280;15244;49.088;11.886;2023-09-30T13:48:01;96713.25;;;21.53;45.86
27425;BME280;15244;49.088;11.886;2023-09-30T13:53:03;96699.53;;;21.62;45.49
27425;BME280;15244;49.088;11.886;2023-09-30T13:58:05;96702.16;;;21.69;45.07
27425;BME280;15244;49.088;11.886;2023-09-30T14:03:06;96692.88;;;21.76;45.15
27425;BME280;15244;49.088;11.886;2023-09-30T14:08:09;96702.16;;;21.85;45.29
27425;BME280;15244;49.088;11.886;2023-09-30T14:13:11;96690.72;;;21.83;45.42
27425;BME280;15244;49.088;11.886;2023-09-30T14:18:13;96695.72;;;21.89;45.39
27425;BME280;15244;49.088;11.886;2023-09-30T14:23:14;96690.00;;;21.96;45.31
27425;BME280;15244;49.088;11.886;2023-09-30T14:28:16;96689.03;;;22.02;45.06
27425;BME280;15244;49.088;11.886;2023-09-30T14:33:18;96681.94;;;22.01;44.49
27425;BME280;15244;49.088;11.886;2023-09-30T14:38:19;96682.28;;;22.03;44.64
27425;BME280;15244;49.088;11.886;2023-09-30T14:43:21;96680.97;;;22.08;44.43
27425;BME280;15244;49.088;11.886;2023-09-30T14:48:23;96681.13;;;22.17;44.21
27425;BME280;15244;49.088;11.886;2023-09-30T14:53:24;96693.19;;;22.27;44.22
27425;BME280;15244;49.088;11.886;2023-09-30T14:58:26;96678.66;;;22.36;43.81
27425;BME280;15244;49.088;11.886;2023-09-30T15:03:27;96684.91;;;22.40;43.45
27425;BME280;15244;49.088;11.886;2023-09-30T15:08:32;96684.47;;;22.41;43.79
27425;BME280;15244;49.088;11.886;2023-09-30T15:13:34;96681.59;;;22.45;43.67
27425;BME280;15244;49.088;11.886;2023-09-30T15:18:37;96680.94;;;22.41;43.57
27425;BME280;15244;49.088;11.886;2023-09-30T15:23:40;96690.81;;;22.42;43.12
27425;BME280;15244;49.088;11.886;2023-09-30T15:28:42;96697.59;;;22.41;43.08
27425;BME280;15244;49.088;11.886;2023-09-30T15:33:43;96685.59;;;22.44;42.89
27425;BME280;15244;49.088;11.886;2023-09-30T15:38:45;96685.16;;;22.45;42.74
27425;BME280;15244;49.088;11.886;2023-09-30T15:43:48;96679.59;;;22.45;42.83
27425;BME280;15244;49.088;11.886;2023-09-30T15:48:49;96680.81;;;22.44;42.69
27425;BME280;15244;49.088;11.886;2023-09-30T15:53:51;96678.66;;;22.36;42.70
27425;BME280;15244;49.088;11.886;2023-09-30T15:58:53;96694.41;;;22.26;42.73
27425;BME280;15244;49.088;11.886;2023-09-30T16:03:55;96693.28;;;22.23;42.96
27425;BME280;15244;49.088;11.886;2023-09-30T16:08:57;96689.03;;;22.19;43.29
27425;BME280;15244;49.088;11.886;2023-09-30T16:13:58;96696.31;;;22.13;43.38
27425;BME280;15244;49.088;11.886;2023-09-30T16:19:00;96708.38;;;22.06;43.32
27425;BME280;15244;49.088;11.886;2023-09-30T16:24:02;96703.44;;;21.97;43.51
27425;BME280;15244;49.088;11.886;2023-09-30T16:29:04;96700.94;;;21.86;43.34
27425;BME280;15244;49.088;11.886;2023-09-30T16:34:05;96696.44;;;21.76;43.75
27425;BME280;15244;49.088;11.886;2023-09-30T16:39:08;96693.56;;;21.63;43.41
27425;BME280;15244;49.088;11.886;2023-09-30T16:44:09;96702.22;;;21.49;43.45
27425;BME280;15244;49.088;11.886;2023-09-30T16:49:11;96713.97;;;21.37;43.89
27425;BME280;15244;49.088;11.886;2023-09-30T16:54:12;96709.00;;;21.28;44.05
27425;BME280;15244;49.088;11.886;2023-09-30T16:59:14;96708.03;;;21.18;44.01
27425;BME280;15244;49.088;11.886;2023-09-30T17:04:16;96700.72;;;21.08;43.71
27425;BME280;15244;49.088;11.886;2023-09-30T17:09:17;96702.09;;;21.00;44.05
27425;BME280;15244;49.088;11.886;2023-09-30T17:14:19;96716.97;;;20.90;43.96
27425;BME280;15244;49.088;11.886;2023-09-30T17:19:20;96717.19;;;20.79;44.17
27425;BME280;15244;49.088;11.886;2023-09-30T17:24:22;96721.72;;;20.69;43.73
27425;BME280;15244;49.088;11.886;2023-09-30T17:29:24;96718.38;;;20.58;43.72
27425;BME280;15244;49.088;11.886;2023-09-30T17:34:25;96728.09;;;20.46;43.56
27425;BME280;15244;49.088;11.886;2023-09-30T17:39:27;96729.47;;;20.34;43.75
27425;BME280;15244;49.088;11.886;2023-09-30T17:44:29;96713.84;;;20.24;43.79
27425;BME280;15244;49.088;11.886;2023-09-30T17:49:30;96712.03;;;20.14;44.11
27425;BME280;15244;49.088;11.886;2023-09-30T17:54:32;96714.66;;;20.01;43.90
27425;BME280;15244;49.088;11.886;2023-09-30T17:59:33;96720.38;;;19.90;44.01
27425;BME280;15244;49.088;11.886;2023-09-30T18:04:35;96710.56;;;19.86;44.09
27425;BME280;15244;49.088;11.886;2023-09-30T18:09:43;96718.56;;;19.80;44.26
27425;BME280;15244;49.088;11.886;2023-09-30T18:14:44;96721.81;;;19.75;44.31
27425;BME280;15244;49.088;11.886;2023-09-30T18:19:46;96727.81;;;19.70;44.20
27425;BME280;15244;49.088;11.886;2023-09-30T18:24:48;96726.31;;;19.62;44.34
27425;BME280;15244;49.088;11.886;2023-09-30T18:29:49;96734.31;;;19.56;44.59
27425;BME280;15244;49.088;11.886;2023-09-30T18:34:51;96736.31;;;19.52;44.68
27425;BME280;15244;49.088;11.886;2023-09-30T18:39:53;96738.38;;;19.48;44.76
27425;BME280;15244;49.088;11.886;2023-09-30T18:44:55;96745.94;;;19.44;45.08
27425;BME280;15244;49.088;11.886;2023-09-30T18:49:57;96750.38;;;19.38;45.07
27425;BME280;15244;49.088;11.886;2023-09-30T18:55:00;96753.25;;;19.31;45.16
27425;BME280;15244;49.088;11.886;2023-09-30T19:00:01;96751.78;;;19.22;45.16
27425;BME280;15244;49.088;11.886;2023-09-30T19:05:03;96761.72;;;19.16;45.16
27425;BME280;15244;49.088;11.886;2023-09-30T19:10:05;96755.88;;;19.11;45.24
27425;BME280;15244;49.088;11.886;2023-09-30T19:15:09;96751.19;;;19.04;45.37
27425;BME280;15244;49.088;11.886;2023-09-30T19:20:11;96750.47;;;19.00;45.49
27425;BME280;15244;49.088;11.886;2023-09-30T19:25:13;96749.78;;;18.92;45.36
27425;BME280;15244;49.088;11.886;2023-09-30T19:30:15;96755.00;;;18.87;45.49
27425;BME280;15244;49.088;11.886;2023-09-30T19:35:16;96749.94;;;18.81;45.45
27425;BME280;15244;49.088;11.886;2023-09-30T19:40:18;96755.09;;;18.76;45.55
27425;BME280;15244;49.088;11.886;2023-09-30T19:45:20;96755.91;;;18.73;45.72
27425;BME280;15244;49.088;11.886;2023-09-30T19:50:21;96750.81;;;18.68;45.84
27425;BME280;15244;49.088;11.886;2023-09-30T19:55:26;96757.19;;;18.65;45.88
27425;BME280;15244;49.088;11.886;2023-09-30T20:00:28;96765.50;;;18.61;45.78
27425;BME280;15244;49.088;11.886;2023-09-30T20:05:29;96765.16;;;18.55;46.16
27425;BME280;15244;49.088;11.886;2023-09-30T20:10:31;96755.00;;;18.49;46.12
27425;BME280;15244;49.088;11.886;2023-09-30T20:15:35;96751.47;;;18.45;46.04
27425;BME280;15244;49.088;11.886;2023-09-30T20:20:37;96750.34;;;18.38;46.13
27425;BME280;15244;49.088;11.886;2023-09-30T20:25:38;96752.75;;;18.33;46.35
27425;BME280;15244;49.088;11.886;2023-09-30T20:30:40;96747.28;;;18.29;46.45
27425;BME280;15244;49.088;11.886;2023-09-30T20:35:41;96744.56;;;18.26;46.44
27425;BME280;15244;49.088;11.886;2023-09-30T20:40:43;96745.38;;;18.23;46.48
27425;BME280;15244;49.088;11.886;2023-09-30T20:45:46;96733.59;;;18.18;46.69
27425;BME280;15244;49.088;11.886;2023-09-30T20:50:47;96741.13;;;18.14;46.72
27425;BME280;15244;49.088;11.886;2023-09-30T20:55:49;96731.28;;;18.10;46.79
27425;BME280;15244;49.088;11.886;2023-09-30T21:00:51;96742.00;;;18.04;46.87
27425;BME280;15244;49.088;11.886;2023-09-30T21:05:53;96750.31;;;18.01;46.99
27425;BME280;15244;49.088;11.886;2023-09-30T21:10:55;96748.38;;;17.94;46.99
27425;BME280;15244;49.088;11.886;2023-09-30T21:15:56;96747.22;;;17.91;46.85
27425;BME280;15244;49.088;11.886;2023-09-30T21:20:58;96753.97;;;17.87;47.23
27425;BME280;15244;49.088;11.886;2023-09-30T21:26:00;96748.47;;;17.83;47.06
27425;BME280;15244;49.088;11.886;2023-09-30T21:31:01;96758.72;;;17.79;47.18
27425;BME280;15244;49.088;11.886;2023-09-30T21:36:03;96769.00;;;17.75;47.19
27425;BME280;15244;49.088;11.886;2023-09-30T21:41:12;96776.53;;;17.71;47.14
27425;BME280;15244;49.088;11.886;2023-09-30T21:46:17;96772.22;;;17.66;47.28
27425;BME280;15244;49.088;11.886;2023-09-30T21:51:19;96779.72;;;17.62;47.29
27425;BME280;15244;49.088;11.886;2023-09-30T21:56:20;96775.44;;;17.58;47.41
27425;BME280;15244;49.088;11.886;2023-09-30T22:01:22;96774.28;;;17.51;47.44
27425;BME280;15244;49.088;11.886;2023-09-30T22:06:24;96775.50;;;17.43;47.45
27425;BME280;15244;49.088;11.886;2023-09-30T22:11:26;96779.47;;;17.39;47.41
27425;BME280;15244;49.088;11.886;2023-09-30T22:16:28;96782.25;;;17.35;47.57
27425;BME280;15244;49.088;11.886;2023-09-30T22:21:33;96789.34;;;17.29;47.59
27425;BME280;15244;49.088;11.886;2023-09-30T22:26:34;96792.19;;;17.22;47.62
27425;BME280;15244;49.088;11.886;2023-09-30T22:31:36;96788.63;;;17.14;47.62
27425;BME280;15244;49.088;11.886;2023-09-30T22:36:38;96801.31;;;16.97;47.68
27425;BME280;15244;49.088;11.886;2023-09-30T22:41:47;96803.31;;;16.86;47.89
27425;BME280;15244;49.088;11.886;2023-09-30T22:46:49;96799.41;;;16.73;48.14
27425;BME280;15244;49.088;11.886;2023-09-30T22:51:51;96800.19;;;16.66;48.07
27425;BME280;15244;49.088;11.886;2023-09-30T22:56:54;96802.97;;;16.62;48.54
27425;BME280;15244;49.088;11.886;2023-09-30T23:01:56;96804.16;;;16.61;48.58
27425;BME280;15244;49.088;11.886;2023-09-30T23:06:58;96796.69;;;16.62;49.05
27425;BME280;15244;49.088;11.886;2023-09-30T23:12:02;96798.63;;;16.65;49.28
27425;BME280;15244;49.088;11.886;2023-09-30T23:17:04;96797.81;;;16.68;49.69
27425;BME280;15244;49.088;11.886;2023-09-30T23:22:06;96790.38;;;16.68;49.47
27425;BME280;15244;49.088;11.886;2023-09-30T23:27:12;96797.44;;;16.69;49.60
27425;BME280;15244;49.088;11.886;2023-09-30T23:32:15;96802.56;;;16.71;49.57
27425;BME280;15244;49.088;11.886;2023-09-30T23:37:16;96799.81;;;16.71;49.79
27425;BME280;15244;49.088;11.886;2023-09-30T23:42:18;96796.25;;;16.71;49.91
27425;BME280;15244;49.088;11.886;2023-09-30T23:47:20;96796.25;;;16.71;49.73
27425;BME280;15244;49.088;11.886;2023-09-30T23:52:36;96800.97;;;16.70;49.92
27425;BME280;15244;49.088;11.886;2023-09-30T23:57:39;96784.44;;;16.70;49.88
